Terminal Aerodrome Forecast
Issued by NWS

Home | Current Version | Previous Version | Text Only | Print | Product List | Glossary Off
Versions: 1 2 3 4 5 6 7 8 9 10 11 12 13 14 15 16 17 18 19 20 21 22 23 24 25 26 27 28 29 30 31 32 33 34

000
FTUS43 KTOP 021700
TAFFOE
TAF
KFOE 021720Z 0218/0318 VRB03KT P6SM FEW015
     FM022100 10005KT P6SM FEW035
     FM030900 15006KT P6SM VCTS SCT015 BKN070CB
     FM031300 18014KT P6SM BKN150=

USA.gov is the U.S. government's official web portal to all federal, state and local government web resources and services.